sensor_id;sensor_type;location;lat;lon;timestamp;temperature;humidity
80579;SHT31;69939;52.402;6.608;2023-07-09T00:02:18;22.70;62.08
80579;SHT31;69939;52.402;6.608;2023-07-09T00:04:48;22.73;61.86
80579;SHT31;69939;52.402;6.608;2023-07-09T00:07:21;22.73;61.68
80579;SHT31;69939;52.402;6.608;2023-07-09T00:09:53;22.80;61.28
80579;SHT31;69939;52.402;6.608;2023-07-09T00:12:24;22.81;61.25
80579;SHT31;69939;52.402;6.608;2023-07-09T00:14:56;22.81;61.53
80579;SHT31;69939;52.402;6.608;2023-07-09T00:17:28;22.80;61.48
80579;SHT31;69939;52.402;6.608;2023-07-09T00:19:59;22.80;61.34
80579;SHT31;69939;52.402;6.608;2023-07-09T00:22:30;22.86;61.30
80579;SHT31;69939;52.402;6.608;2023-07-09T00:24:59;22.80;61.70
80579;SHT31;69939;52.402;6.608;2023-07-09T00:27:30;22.80;61.35
80579;SHT31;69939;52.402;6.608;2023-07-09T00:30:02;22.81;61.27
80579;SHT31;69939;52.402;6.608;2023-07-09T00:32:32;22.80;61.50
80579;SHT31;69939;52.402;6.608;2023-07-09T00:35:08;22.75;61.90
80579;SHT31;69939;52.402;6.608;2023-07-09T00:37:42;22.67;61.93
80579;SHT31;69939;52.402;6.608;2023-07-09T00:40:15;22.63;61.75
80579;SHT31;69939;52.402;6.608;2023-07-09T00:42:48;22.63;62.32
80579;SHT31;69939;52.402;6.608;2023-07-09T00:45:23;22.49;62.57
80579;SHT31;69939;52.402;6.608;2023-07-09T00:47:55;22.44;62.63
80579;SHT31;69939;52.402;6.608;2023-07-09T00:50:34;22.43;62.40
80579;SHT31;69939;52.402;6.608;2023-07-09T00:53:12;22.32;66.63
80579;SHT31;69939;52.402;6.608;2023-07-09T00:55:51;21.92;65.65
80579;SHT31;69939;52.402;6.608;2023-07-09T00:58:25;21.88;64.79
80579;SHT31;69939;52.402;6.608;2023-07-09T01:01:01;21.91;64.44
80579;SHT31;69939;52.402;6.608;2023-07-09T01:03:35;21.86;65.35
80579;SHT31;69939;52.402;6.608;2023-07-09T01:06:09;21.62;67.59
80579;SHT31;69939;52.402;6.608;2023-07-09T01:08:40;21.50;66.45
80579;SHT31;69939;52.402;6.608;2023-07-09T01:11:15;21.51;66.12
80579;SHT31;69939;52.402;6.608;2023-07-09T01:13:46;21.51;65.53
80579;SHT31;69939;52.402;6.608;2023-07-09T01:16:19;21.58;65.21
80579;SHT31;69939;52.402;6.608;2023-07-09T01:18:50;21.59;65.69
80579;SHT31;69939;52.402;6.608;2023-07-09T01:21:21;21.57;68.68
80579;SHT31;69939;52.402;6.608;2023-07-09T01:23:52;21.38;67.73
80579;SHT31;69939;52.402;6.608;2023-07-09T01:26:26;21.34;67.12
80579;SHT31;69939;52.402;6.608;2023-07-09T01:28:56;21.43;66.39
80579;SHT31;69939;52.402;6.608;2023-07-09T01:31:29;21.46;66.75
80579;SHT31;69939;52.402;6.608;2023-07-09T01:33:59;21.43;66.34
80579;SHT31;69939;52.402;6.608;2023-07-09T01:36:31;21.36;66.57
80579;SHT31;69939;52.402;6.608;2023-07-09T01:39:00;21.29;70.18
80579;SHT31;69939;52.402;6.608;2023-07-09T01:41:29;21.02;69.61
80579;SHT31;69939;52.402;6.608;2023-07-09T01:43:59;20.88;69.66
80579;SHT31;69939;52.402;6.608;2023-07-09T01:46:30;20.88;69.81
80579;SHT31;69939;52.402;6.608;2023-07-09T01:49:00;20.78;70.08
80579;SHT31;69939;52.402;6.608;2023-07-09T01:51:31;20.76;70.98
80579;SHT31;69939;52.402;6.608;2023-07-09T01:54:01;20.72;69.55
80579;SHT31;69939;52.402;6.608;2023-07-09T01:56:32;20.76;69.28
80579;SHT31;69939;52.402;6.608;2023-07-09T01:59:04;20.65;72.17
80579;SHT31;69939;52.402;6.608;2023-07-09T02:01:36;20.55;69.79
80579;SHT31;69939;52.402;6.608;2023-07-09T02:04:06;20.65;69.76
80579;SHT31;69939;52.402;6.608;2023-07-09T02:06:38;20.73;69.33
80579;SHT31;69939;52.402;6.608;2023-07-09T02:09:07;20.72;69.92
80579;SHT31;69939;52.402;6.608;2023-07-09T02:11:36;20.72;69.37
80579;SHT31;69939;52.402;6.608;2023-07-09T02:14:05;20.71;69.79
80579;SHT31;69939;52.402;6.608;2023-07-09T02:16:34;20.68;69.92
80579;SHT31;69939;52.402;6.608;2023-07-09T02:19:03;20.65;69.61
80579;SHT31;69939;52.402;6.608;2023-07-09T02:21:32;20.65;70.72
80579;SHT31;69939;52.402;6.608;2023-07-09T02:24:04;20.56;70.87
80579;SHT31;69939;52.402;6.608;2023-07-09T02:26:34;20.52;70.38
80579;SHT31;69939;52.402;6.608;2023-07-09T02:29:03;20.55;69.97
80579;SHT31;69939;52.402;6.608;2023-07-09T02:31:32;20.55;70.59
80579;SHT31;69939;52.402;6.608;2023-07-09T02:34:02;20.52;70.31
80579;SHT31;69939;52.402;6.608;2023-07-09T02:36:31;20.48;70.71
80579;SHT31;69939;52.402;6.608;2023-07-09T02:39:00;20.41;71.13
80579;SHT31;69939;52.402;6.608;2023-07-09T02:41:32;20.34;72.08
80579;SHT31;69939;52.402;6.608;2023-07-09T02:44:01;20.24;72.73
80579;SHT31;69939;52.402;6.608;2023-07-09T02:46:30;20.17;72.11
80579;SHT31;69939;52.402;6.608;2023-07-09T02:48:59;20.20;72.60
80579;SHT31;69939;52.402;6.608;2023-07-09T02:51:29;20.16;72.49
80579;SHT31;69939;52.402;6.608;2023-07-09T02:54:01;20.16;71.91
80579;SHT31;69939;52.402;6.608;2023-07-09T02:56:33;20.20;72.21
80579;SHT31;69939;52.402;6.608;2023-07-09T02:59:03;20.20;72.90
80579;SHT31;69939;52.402;6.608;2023-07-09T03:01:33;20.16;72.50
80579;SHT31;69939;52.402;6.608;2023-07-09T03:04:02;20.12;72.23
80579;SHT31;69939;52.402;6.608;2023-07-09T03:06:34;20.09;74.25
80579;SHT31;69939;52.402;6.608;2023-07-09T03:09:06;20.03;72.84
80579;SHT31;69939;52.402;6.608;2023-07-09T03:11:39;20.07;73.76
80579;SHT31;69939;52.402;6.608;2023-07-09T03:14:08;20.07;72.88
80579;SHT31;69939;52.402;6.608;2023-07-09T03:16:37;20.04;75.28
80579;SHT31;69939;52.402;6.608;2023-07-09T03:19:06;19.82;74.58
80579;SHT31;69939;52.402;6.608;2023-07-09T03:21:36;19.86;73.22
80579;SHT31;69939;52.402;6.608;2023-07-09T03:24:07;20.06;72.92
80579;SHT31;69939;52.402;6.608;2023-07-09T03:26:39;20.09;74.87
80579;SHT31;69939;52.402;6.608;2023-07-09T03:29:08;19.92;74.59
80579;SHT31;69939;52.402;6.608;2023-07-09T03:31:37;19.90;74.35
80579;SHT31;69939;52.402;6.608;2023-07-09T03:34:06;20.01;73.31
80579;SHT31;69939;52.402;6.608;2023-07-09T03:36:35;20.17;72.70
80579;SHT31;69939;52.402;6.608;2023-07-09T03:39:06;20.27;72.54
80579;SHT31;69939;52.402;6.608;2023-07-09T03:41:35;20.37;72.28
80579;SHT31;69939;52.402;6.608;2023-07-09T03:44:07;20.44;72.15
80579;SHT31;69939;52.402;6.608;2023-07-09T03:46:36;20.47;72.38
80579;SHT31;69939;52.402;6.608;2023-07-09T03:49:05;20.40;73.26
80579;SHT31;69939;52.402;6.608;2023-07-09T03:51:34;20.40;73.28
80579;SHT31;69939;52.402;6.608;2023-07-09T03:54:03;20.45;73.20
80579;SHT31;69939;52.402;6.608;2023-07-09T03:56:33;20.52;72.52
80579;SHT31;69939;52.402;6.608;2023-07-09T03:59:02;20.68;72.16
80579;SHT31;69939;52.402;6.608;2023-07-09T04:01:34;20.85;71.55
80579;SHT31;69939;52.402;6.608;2023-07-09T04:04:03;21.00;71.22
80579;SHT31;69939;52.402;6.608;2023-07-09T04:06:33;21.19;70.47
80579;SHT31;69939;52.402;6.608;2023-07-09T04:09:02;21.43;69.96
80579;SHT31;69939;52.402;6.608;2023-07-09T04:11:31;21.61;69.16
80579;SHT31;69939;52.402;6.608;2023-07-09T04:14:00;21.74;68.75
80579;SHT31;69939;52.402;6.608;2023-07-09T04:16:30;21.77;68.58
80579;SHT31;69939;52.402;6.608;2023-07-09T04:19:02;21.68;69.25
80579;SHT31;69939;52.402;6.608;2023-07-09T04:21:32;21.65;69.33
80579;SHT31;69939;52.402;6.608;2023-07-09T04:24:01;21.65;69.79
80579;SHT31;69939;52.402;6.608;2023-07-09T04:26:30;21.64;69.69
80579;SHT31;69939;52.402;6.608;2023-07-09T04:28:59;21.64;69.59
80579;SHT31;69939;52.402;6.608;2023-07-09T04:31:28;21.68;69.76
80579;SHT31;69939;52.402;6.608;2023-07-09T04:33:58;21.75;70.01
80579;SHT31;69939;52.402;6.608;2023-07-09T04:36:30;21.79;69.47
80579;SHT31;69939;52.402;6.608;2023-07-09T04:38:59;21.94;69.25
80579;SHT31;69939;52.402;6.608;2023-07-09T04:41:28;22.05;69.58
80579;SHT31;69939;52.402;6.608;2023-07-09T04:43:58;22.20;69.47
80579;SHT31;69939;52.402;6.608;2023-07-09T04:46:27;22.33;68.54
80579;SHT31;69939;52.402;6.608;2023-07-09T04:48:56;22.40;68.22
80579;SHT31;69939;52.402;6.608;2023-07-09T04:51:26;22.39;68.77
80579;SHT31;69939;52.402;6.608;2023-07-09T04:53:58;22.23;72.29
80579;SHT31;69939;52.402;6.608;2023-07-09T04:56:28;22.23;71.04
80579;SHT31;69939;52.402;6.608;2023-07-09T04:58:58;22.30;71.92
80579;SHT31;69939;52.402;6.608;2023-07-09T05:01:27;22.39;70.26
80579;SHT31;69939;52.402;6.608;2023-07-09T05:03:56;22.56;69.66
80579;SHT31;69939;52.402;6.608;2023-07-09T05:06:25;22.71;69.16
80579;SHT31;69939;52.402;6.608;2023-07-09T05:08:56;22.91;68.64
80579;SHT31;69939;52.402;6.608;2023-07-09T05:11:26;23.04;68.18
80579;SHT31;69939;52.402;6.608;2023-07-09T05:13:55;23.25;67.94
80579;SHT31;69939;52.402;6.608;2023-07-09T05:16:24;23.30;67.88
80579;SHT31;69939;52.402;6.608;2023-07-09T05:18:53;23.35;68.03
80579;SHT31;69939;52.402;6.608;2023-07-09T05:21:22;23.42;68.28
80579;SHT31;69939;52.402;6.608;2023-07-09T05:23:52;23.50;67.90
80579;SHT31;69939;52.402;6.608;2023-07-09T05:26:23;23.59;68.58
80579;SHT31;69939;52.402;6.608;2023-07-09T05:28:53;23.70;68.33
80579;SHT31;69939;52.402;6.608;2023-07-09T05:31:23;23.74;68.61
80579;SHT31;69939;52.402;6.608;2023-07-09T05:33:52;23.71;68.84
80579;SHT31;69939;52.402;6.608;2023-07-09T05:36:21;23.76;70.13
80579;SHT31;69939;52.402;6.608;2023-07-09T05:38:50;23.83;69.32
80579;SHT31;69939;52.402;6.608;2023-07-09T05:41:19;23.90;69.00
80579;SHT31;69939;52.402;6.608;2023-07-09T05:43:52;24.01;68.92
80579;SHT31;69939;52.402;6.608;2023-07-09T05:46:22;24.14;68.85
80579;SHT31;69939;52.402;6.608;2023-07-09T05:48:51;24.29;68.15
80579;SHT31;69939;52.402;6.608;2023-07-09T05:51:21;24.66;68.78
80579;SHT31;69939;52.402;6.608;2023-07-09T05:53:51;24.93;67.30
80579;SHT31;69939;52.402;6.608;2023-07-09T05:56:21;25.38;67.28
80579;SHT31;69939;52.402;6.608;2023-07-09T05:58:52;26.22;64.10
80579;SHT31;69939;52.402;6.608;2023-07-09T06:01:21;26.95;63.09
80579;SHT31;69939;52.402;6.608;2023-07-09T06:03:51;27.78;61.21
80579;SHT31;69939;52.402;6.608;2023-07-09T06:06:21;28.52;59.32
80579;SHT31;69939;52.402;6.608;2023-07-09T06:08:53;29.11;57.37
80579;SHT31;69939;52.402;6.608;2023-07-09T06:11:22;29.80;55.76
80579;SHT31;69939;52.402;6.608;2023-07-09T06:13:54;30.57;54.80
80579;SHT31;69939;52.402;6.608;2023-07-09T06:16:24;30.65;52.63
80579;SHT31;69939;52.402;6.608;2023-07-09T06:18:53;30.64;53.39
80579;SHT31;69939;52.402;6.608;2023-07-09T06:21:22;30.55;53.25
80579;SHT31;69939;52.402;6.608;2023-07-09T06:23:51;30.59;54.62
80579;SHT31;69939;52.402;6.608;2023-07-09T06:26:21;30.76;54.35
80579;SHT31;69939;52.402;6.608;2023-07-09T06:28:50;30.93;52.78
80579;SHT31;69939;52.402;6.608;2023-07-09T06:31:23;30.59;53.54
80579;SHT31;69939;52.402;6.608;2023-07-09T06:33:52;30.51;54.61
80579;SHT31;69939;52.402;6.608;2023-07-09T06:36:22;30.30;54.63
80579;SHT31;69939;52.402;6.608;2023-07-09T06:38:51;30.37;54.20
80579;SHT31;69939;52.402;6.608;2023-07-09T06:41:20;30.67;53.36
80579;SHT31;69939;52.402;6.608;2023-07-09T06:43:49;31.04;53.60
80579;SHT31;69939;52.402;6.608;2023-07-09T06:46:22;31.31;54.12
80579;SHT31;69939;52.402;6.608;2023-07-09T06:48:51;31.55;52.39
80579;SHT31;69939;52.402;6.608;2023-07-09T06:51:21;31.68;51.35
80579;SHT31;69939;52.402;6.608;2023-07-09T06:53:50;32.08;51.50
80579;SHT31;69939;52.402;6.608;2023-07-09T06:56:19;32.13;51.55
80579;SHT31;69939;52.402;6.608;2023-07-09T06:58:48;32.47;50.19
80579;SHT31;69939;52.402;6.608;2023-07-09T07:01:17;32.56;49.31
80579;SHT31;69939;52.402;6.608;2023-07-09T07:03:49;32.63;49.07
80579;SHT31;69939;52.402;6.608;2023-07-09T07:06:18;32.76;50.71
80579;SHT31;69939;52.402;6.608;2023-07-09T07:08:47;32.81;50.78
80579;SHT31;69939;52.402;6.608;2023-07-09T07:11:16;32.91;50.84
80579;SHT31;69939;52.402;6.608;2023-07-09T07:13:46;32.53;50.36
80579;SHT31;69939;52.402;6.608;2023-07-09T07:16:16;32.46;51.48
80579;SHT31;69939;52.402;6.608;2023-07-09T07:18:48;32.43;52.06
80579;SHT31;69939;52.402;6.608;2023-07-09T07:21:18;32.74;51.12
80579;SHT31;69939;52.402;6.608;2023-07-09T07:23:47;32.83;51.01
80579;SHT31;69939;52.402;6.608;2023-07-09T07:26:16;33.19;50.34
80579;SHT31;69939;52.402;6.608;2023-07-09T07:28:46;33.51;51.53
80579;SHT31;69939;52.402;6.608;2023-07-09T07:31:16;33.43;49.91
80579;SHT31;69939;52.402;6.608;2023-07-09T07:33:45;33.48;49.26
80579;SHT31;69939;52.402;6.608;2023-07-09T07:36:17;33.62;49.56
80579;SHT31;69939;52.402;6.608;2023-07-09T07:38:46;33.74;48.76
80579;SHT31;69939;52.402;6.608;2023-07-09T07:41:15;33.99;48.73
80579;SHT31;69939;52.402;6.608;2023-07-09T07:43:45;33.86;48.68
80579;SHT31;69939;52.402;6.608;2023-07-09T07:46:14;34.00;49.06
80579;SHT31;69939;52.402;6.608;2023-07-09T07:48:43;33.69;49.00
80579;SHT31;69939;52.402;6.608;2023-07-09T07:51:12;33.69;48.50
80579;SHT31;69939;52.402;6.608;2023-07-09T07:53:43;33.83;48.29
80579;SHT31;69939;52.402;6.608;2023-07-09T07:56:14;34.07;48.60
80579;SHT31;69939;52.402;6.608;2023-07-09T07:58:43;34.25;48.60
80579;SHT31;69939;52.402;6.608;2023-07-09T08:01:13;34.44;49.16
80579;SHT31;69939;52.402;6.608;2023-07-09T08:03:42;34.79;47.26
80579;SHT31;69939;52.402;6.608;2023-07-09T08:06:11;34.41;48.01
80579;SHT31;69939;52.402;6.608;2023-07-09T08:08:43;34.68;47.77
80579;SHT31;69939;52.402;6.608;2023-07-09T08:11:12;35.23;47.56
80579;SHT31;69939;52.402;6.608;2023-07-09T08:13:41;35.33;48.29
80579;SHT31;69939;52.402;6.608;2023-07-09T08:16:10;34.96;47.97
80579;SHT31;69939;52.402;6.608;2023-07-09T08:18:39;35.07;47.39
80579;SHT31;69939;52.402;6.608;2023-07-09T08:21:08;35.33;47.52
80579;SHT31;69939;52.402;6.608;2023-07-09T08:23:37;34.93;48.97
80579;SHT31;69939;52.402;6.608;2023-07-09T08:26:09;34.81;47.92
80579;SHT31;69939;52.402;6.608;2023-07-09T08:28:37;34.49;49.68
80579;SHT31;69939;52.402;6.608;2023-07-09T08:31:06;34.37;49.72
80579;SHT31;69939;52.402;6.608;2023-07-09T08:33:35;34.78;50.06
80579;SHT31;69939;52.402;6.608;2023-07-09T08:36:05;34.85;48.84
80579;SHT31;69939;52.402;6.608;2023-07-09T08:38:34;35.40;48.31
80579;SHT31;69939;52.402;6.608;2023-07-09T08:41:23;35.46;46.87
80579;SHT31;69939;52.402;6.608;2023-07-09T08:44:00;35.88;46.52
80579;SHT31;69939;52.402;6.608;2023-07-09T08:46:48;36.11;44.65
80579;SHT31;69939;52.402;6.608;2023-07-09T08:49:23;35.17;48.51
80579;SHT31;69939;52.402;6.608;2023-07-09T08:51:56;34.44;48.61
80579;SHT31;69939;52.402;6.608;2023-07-09T08:54:28;34.11;49.79
80579;SHT31;69939;52.402;6.608;2023-07-09T08:57:07;34.71;52.49
80579;SHT31;69939;52.402;6.608;2023-07-09T08:59:37;34.20;50.06
80579;SHT31;69939;52.402;6.608;2023-07-09T09:02:15;33.46;50.55
80579;SHT31;69939;52.402;6.608;2023-07-09T09:04:53;33.39;50.74
80579;SHT31;69939;52.402;6.608;2023-07-09T09:07:31;33.79;48.19
80579;SHT31;69939;52.402;6.608;2023-07-09T09:10:13;33.41;51.79
80579;SHT31;69939;52.402;6.608;2023-07-09T09:12:56;34.01;50.02
80579;SHT31;69939;52.402;6.608;2023-07-09T09:15:37;34.37;50.16
80579;SHT31;69939;52.402;6.608;2023-07-09T09:18:20;34.93;49.79
80579;SHT31;69939;52.402;6.608;2023-07-09T09:20:57;35.33;47.61
80579;SHT31;69939;52.402;6.608;2023-07-09T09:23:36;35.41;48.48
80579;SHT31;69939;52.402;6.608;2023-07-09T09:26:14;34.96;44.56
80579;SHT31;69939;52.402;6.608;2023-07-09T09:28:48;34.95;50.39
80579;SHT31;69939;52.402;6.608;2023-07-09T09:31:17;35.25;48.43
80579;SHT31;69939;52.402;6.608;2023-07-09T09:33:47;35.88;47.76
80579;SHT31;69939;52.402;6.608;2023-07-09T09:36:19;36.44;44.34
80579;SHT31;69939;52.402;6.608;2023-07-09T09:38:49;36.37;45.30
80579;SHT31;69939;52.402;6.608;2023-07-09T09:41:20;35.81;45.70
80579;SHT31;69939;52.402;6.608;2023-07-09T09:43:54;35.91;46.60
80579;SHT31;69939;52.402;6.608;2023-07-09T09:46:24;36.32;46.02
80579;SHT31;69939;52.402;6.608;2023-07-09T09:48:56;36.43;46.92
80579;SHT31;69939;52.402;6.608;2023-07-09T09:51:28;35.89;44.89
80579;SHT31;69939;52.402;6.608;2023-07-09T09:53:58;36.31;45.70
80579;SHT31;69939;52.402;6.608;2023-07-09T09:56:30;36.39;45.07
80579;SHT31;69939;52.402;6.608;2023-07-09T09:59:17;35.94;48.25
80579;SHT31;69939;52.402;6.608;2023-07-09T10:01:56;36.06;44.71
80579;SHT31;69939;52.402;6.608;2023-07-09T10:04:26;36.69;43.54
80579;SHT31;69939;52.402;6.608;2023-07-09T10:06:56;36.25;44.81
80579;SHT31;69939;52.402;6.608;2023-07-09T10:09:34;36.46;45.01
80579;SHT31;69939;52.402;6.608;2023-07-09T10:12:25;36.63;44.28
80579;SHT31;69939;52.402;6.608;2023-07-09T10:15:15;36.69;43.69
80579;SHT31;69939;52.402;6.608;2023-07-09T10:17:54;36.69;42.94
80579;SHT31;69939;52.402;6.608;2023-07-09T10:20:32;36.74;46.48
80579;SHT31;69939;52.402;6.608;2023-07-09T10:23:18;37.07;43.04
80579;SHT31;69939;52.402;6.608;2023-07-09T10:25:59;36.43;43.96
80579;SHT31;69939;52.402;6.608;2023-07-09T10:28:41;36.71;43.57
80579;SHT31;69939;52.402;6.608;2023-07-09T10:31:35;37.10;42.43
80579;SHT31;69939;52.402;6.608;2023-07-09T10:34:19;36.64;46.03
80579;SHT31;69939;52.402;6.608;2023-07-09T10:37:07;36.94;42.48
80579;SHT31;69939;52.402;6.608;2023-07-09T10:39:52;37.35;42.92
80579;SHT31;69939;52.402;6.608;2023-07-09T10:42:29;36.88;44.19
80579;SHT31;69939;52.402;6.608;2023-07-09T10:45:09;37.04;42.22
80579;SHT31;69939;52.402;6.608;2023-07-09T10:47:44;37.04;41.98
80579;SHT31;69939;52.402;6.608;2023-07-09T10:50:23;37.34;43.05
80579;SHT31;69939;52.402;6.608;2023-07-09T10:53:00;37.77;43.18
80579;SHT31;69939;52.402;6.608;2023-07-09T10:55:40;37.79;40.22
80579;SHT31;69939;52.402;6.608;2023-07-09T10:58:22;37.87;41.15
80579;SHT31;69939;52.402;6.608;2023-07-09T11:00:59;38.04;41.11
80579;SHT31;69939;52.402;6.608;2023-07-09T11:03:37;37.87;42.02
80579;SHT31;69939;52.402;6.608;2023-07-09T11:06:16;38.09;41.70
80579;SHT31;69939;52.402;6.608;2023-07-09T11:08:51;38.41;44.69
80579;SHT31;69939;52.402;6.608;2023-07-09T11:11:29;38.37;41.12
80579;SHT31;69939;52.402;6.608;2023-07-09T11:14:04;38.32;43.48
80579;SHT31;69939;52.402;6.608;2023-07-09T11:16:46;37.62;41.47
80579;SHT31;69939;52.402;6.608;2023-07-09T11:19:19;37.68;41.32
80579;SHT31;69939;52.402;6.608;2023-07-09T11:22:03;37.93;41.97
80579;SHT31;69939;52.402;6.608;2023-07-09T11:24:36;37.96;45.54
80579;SHT31;69939;52.402;6.608;2023-07-09T11:27:21;38.06;41.27
80579;SHT31;69939;52.402;6.608;2023-07-09T11:29:59;38.23;41.35
80579;SHT31;69939;52.402;6.608;2023-07-09T11:32:29;38.25;40.28
80579;SHT31;69939;52.402;6.608;2023-07-09T11:35:21;37.87;40.96
80579;SHT31;69939;52.402;6.608;2023-07-09T11:37:51;38.35;41.20
80579;SHT31;69939;52.402;6.608;2023-07-09T11:40:22;38.23;40.26
80579;SHT31;69939;52.402;6.608;2023-07-09T11:42:53;38.12;41.44
80579;SHT31;69939;52.402;6.608;2023-07-09T11:45:28;38.20;41.01
80579;SHT31;69939;52.402;6.608;2023-07-09T11:48:01;38.12;41.01
80579;SHT31;69939;52.402;6.608;2023-07-09T11:50:50;38.27;40.35
80579;SHT31;69939;52.402;6.608;2023-07-09T11:53:36;38.61;41.86
80579;SHT31;69939;52.402;6.608;2023-07-09T11:56:11;38.51;39.70
80579;SHT31;69939;52.402;6.608;2023-07-09T11:58:48;38.52;42.36
80579;SHT31;69939;52.402;6.608;2023-07-09T12:01:20;38.69;40.80
80579;SHT31;69939;52.402;6.608;2023-07-09T12:03:51;39.02;38.93
80579;SHT31;69939;52.402;6.608;2023-07-09T12:06:26;39.22;38.27
80579;SHT31;69939;52.402;6.608;2023-07-09T12:08:59;39.22;38.25
80579;SHT31;69939;52.402;6.608;2023-07-09T12:11:31;39.17;41.07
80579;SHT31;69939;52.402;6.608;2023-07-09T12:14:02;39.50;39.96
80579;SHT31;69939;52.402;6.608;2023-07-09T12:16:36;39.00;43.44
80579;SHT31;69939;52.402;6.608;2023-07-09T12:19:06;38.45;42.86
80579;SHT31;69939;52.402;6.608;2023-07-09T12:21:42;38.99;39.95
80579;SHT31;69939;52.402;6.608;2023-07-09T12:24:20;39.36;38.68
80579;SHT31;69939;52.402;6.608;2023-07-09T12:26:56;39.17;42.93
80579;SHT31;69939;52.402;6.608;2023-07-09T12:29:28;39.06;39.68
80579;SHT31;69939;52.402;6.608;2023-07-09T12:31:58;39.13;37.28
80579;SHT31;69939;52.402;6.608;2023-07-09T12:34:30;39.03;40.91
80579;SHT31;69939;52.402;6.608;2023-07-09T12:37:02;38.42;40.45
80579;SHT31;69939;52.402;6.608;2023-07-09T12:39:33;37.58;39.41
80579;SHT31;69939;52.402;6.608;2023-07-09T12:42:03;37.69;44.32
80579;SHT31;69939;52.402;6.608;2023-07-09T12:44:41;38.12;41.16
80579;SHT31;69939;52.402;6.608;2023-07-09T12:47:13;38.92;40.80
80579;SHT31;69939;52.402;6.608;2023-07-09T12:49:44;38.74;38.04
80579;SHT31;69939;52.402;6.608;2023-07-09T12:52:22;38.16;41.89
80579;SHT31;69939;52.402;6.608;2023-07-09T12:54:52;37.89;42.94
80579;SHT31;69939;52.402;6.608;2023-07-09T12:57:26;37.97;42.72
80579;SHT31;69939;52.402;6.608;2023-07-09T12:59:56;37.61;42.46
80579;SHT31;69939;52.402;6.608;2023-07-09T13:02:28;36.79;43.74
80579;SHT31;69939;52.402;6.608;2023-07-09T13:05:02;37.04;41.12
80579;SHT31;69939;52.402;6.608;2023-07-09T13:07:37;37.61;39.77
80579;SHT31;69939;52.402;6.608;2023-07-09T13:10:15;38.19;41.42
80579;SHT31;69939;52.402;6.608;2023-07-09T13:12:48;38.61;39.12
80579;SHT31;69939;52.402;6.608;2023-07-09T13:15:26;38.54;42.02
80579;SHT31;69939;52.402;6.608;2023-07-09T13:17:58;37.94;42.04
80579;SHT31;69939;52.402;6.608;2023-07-09T13:20:30;37.43;43.54
80579;SHT31;69939;52.402;6.608;2023-07-09T13:23:09;36.84;43.41
80579;SHT31;69939;52.402;6.608;2023-07-09T13:25:39;36.14;45.07
80579;SHT31;69939;52.402;6.608;2023-07-09T13:28:15;36.22;43.41
80579;SHT31;69939;52.402;6.608;2023-07-09T13:30:45;36.70;45.56
80579;SHT31;69939;52.402;6.608;2023-07-09T13:33:14;36.90;43.90
80579;SHT31;69939;52.402;6.608;2023-07-09T13:35:46;37.22;45.53
80579;SHT31;69939;52.402;6.608;2023-07-09T13:38:23;37.43;44.27
80579;SHT31;69939;52.402;6.608;2023-07-09T13:40:54;37.45;42.81
80579;SHT31;69939;52.402;6.608;2023-07-09T13:43:28;37.43;43.16
80579;SHT31;69939;52.402;6.608;2023-07-09T13:46:03;36.87;43.39
80579;SHT31;69939;52.402;6.608;2023-07-09T13:48:37;36.26;45.89
80579;SHT31;69939;52.402;6.608;2023-07-09T13:51:15;35.96;44.91
80579;SHT31;69939;52.402;6.608;2023-07-09T13:53:48;35.61;45.85
80579;SHT31;69939;52.402;6.608;2023-07-09T13:56:20;35.65;47.19
80579;SHT31;69939;52.402;6.608;2023-07-09T13:58:50;35.71;44.11
80579;SHT31;69939;52.402;6.608;2023-07-09T14:01:22;35.84;44.05
80579;SHT31;69939;52.402;6.608;2023-07-09T14:03:55;36.31;44.03
80579;SHT31;69939;52.402;6.608;2023-07-09T14:06:26;36.71;43.04
80579;SHT31;69939;52.402;6.608;2023-07-09T14:08:57;36.81;42.22
80579;SHT31;69939;52.402;6.608;2023-07-09T14:11:27;36.43;42.60
80579;SHT31;69939;52.402;6.608;2023-07-09T14:13:56;36.16;43.17
80579;SHT31;69939;52.402;6.608;2023-07-09T14:16:24;35.71;45.61
80579;SHT31;69939;52.402;6.608;2023-07-09T14:18:53;35.26;47.28
80579;SHT31;69939;52.402;6.608;2023-07-09T14:21:24;34.95;45.61
80579;SHT31;69939;52.402;6.608;2023-07-09T14:23:57;34.44;47.31
80579;SHT31;69939;52.402;6.608;2023-07-09T14:26:26;34.23;48.06
80579;SHT31;69939;52.402;6.608;2023-07-09T14:28:54;34.13;47.97
80579;SHT31;69939;52.402;6.608;2023-07-09T14:31:27;34.27;47.11
80579;SHT31;69939;52.402;6.608;2023-07-09T14:34:16;34.47;48.67
80579;SHT31;69939;52.402;6.608;2023-07-09T14:36:49;34.86;48.24
80579;SHT31;69939;52.402;6.608;2023-07-09T14:39:23;35.25;44.66
80579;SHT31;69939;52.402;6.608;2023-07-09T14:41:56;35.41;46.09
80579;SHT31;69939;52.402;6.608;2023-07-09T14:44:28;35.49;46.12
80579;SHT31;69939;52.402;6.608;2023-07-09T14:47:00;35.25;44.54
80579;SHT31;69939;52.402;6.608;2023-07-09T14:49:29;35.02;46.43
80579;SHT31;69939;52.402;6.608;2023-07-09T14:51:57;34.85;46.06
80579;SHT31;69939;52.402;6.608;2023-07-09T14:54:30;34.79;46.15
80579;SHT31;69939;52.402;6.608;2023-07-09T14:56:59;34.81;46.83
80579;SHT31;69939;52.402;6.608;2023-07-09T14:59:27;34.79;48.61
80579;SHT31;69939;52.402;6.608;2023-07-09T15:01:56;34.20;51.15
80579;SHT31;69939;52.402;6.608;2023-07-09T15:04:30;33.17;50.15
80579;SHT31;69939;52.402;6.608;2023-07-09T15:07:00;31.40;55.24
80579;SHT31;69939;52.402;6.608;2023-07-09T15:09:36;29.74;58.79
80579;SHT31;69939;52.402;6.608;2023-07-09T15:12:16;29.28;60.75
80579;SHT31;69939;52.402;6.608;2023-07-09T15:14:48;29.03;60.06
80579;SHT31;69939;52.402;6.608;2023-07-09T15:17:17;28.84;61.00
80579;SHT31;69939;52.402;6.608;2023-07-09T15:19:46;28.55;61.87
80579;SHT31;69939;52.402;6.608;2023-07-09T15:22:26;28.09;63.49
80579;SHT31;69939;52.402;6.608;2023-07-09T15:25:01;27.88;63.49
80579;SHT31;69939;52.402;6.608;2023-07-09T15:27:30;27.64;63.76
80579;SHT31;69939;52.402;6.608;2023-07-09T15:29:58;27.47;63.17
80579;SHT31;69939;52.402;6.608;2023-07-09T15:32:27;27.36;63.89
80579;SHT31;69939;52.402;6.608;2023-07-09T15:34:56;27.23;64.56
80579;SHT31;69939;52.402;6.608;2023-07-09T15:37:24;26.85;68.10
80579;SHT31;69939;52.402;6.608;2023-07-09T15:39:53;26.27;70.41
80579;SHT31;69939;52.402;6.608;2023-07-09T15:42:24;25.65;73.50
80579;SHT31;69939;52.402;6.608;2023-07-09T15:44:53;25.00;76.50
80579;SHT31;69939;52.402;6.608;2023-07-09T15:47:24;24.08;81.45
80579;SHT31;69939;52.402;6.608;2023-07-09T15:49:55;23.35;85.87
80579;SHT31;69939;52.402;6.608;2023-07-09T15:52:25;23.04;87.64
80579;SHT31;69939;52.402;6.608;2023-07-09T15:54:56;22.78;89.29
80579;SHT31;69939;52.402;6.608;2023-07-09T15:57:29;22.67;89.61
80579;SHT31;69939;52.402;6.608;2023-07-09T15:59:58;22.60;89.43
80579;SHT31;69939;52.402;6.608;2023-07-09T16:02:26;22.42;90.94